sensor_id;sensor_type;location;lat;lon;timestamp;temperature;humidity
73112;HTU21D;61301;51.956;5.876;2022-12-07T00:01:12;8.96;65.94
73112;HTU21D;61301;51.956;5.876;2022-12-07T00:03:39;8.97;66.14
73112;HTU21D;61301;51.956;5.876;2022-12-07T00:06:07;9.07;66.24
73112;HTU21D;61301;51.956;5.876;2022-12-07T00:08:34;9.20;66.68
73112;HTU21D;61301;51.956;5.876;2022-12-07T00:11:07;9.18;66.40
73112;HTU21D;61301;51.956;5.876;2022-12-07T00:13:34;8.97;65.95
73112;HTU21D;61301;51.956;5.876;2022-12-07T00:16:02;9.00;65.84
73112;HTU21D;61301;51.956;5.876;2022-12-07T00:18:29;9.03;65.95
73112;HTU21D;61301;51.956;5.876;2022-12-07T00:21:12;9.06;66.15
73112;HTU21D;61301;51.956;5.876;2022-12-07T00:23:39;9.00;65.72
73112;HTU21D;61301;51.956;5.876;2022-12-07T00:26:12;8.94;65.85
73112;HTU21D;61301;51.956;5.876;2022-12-07T00:28:38;8.81;65.48
73112;HTU21D;61301;51.956;5.876;2022-12-07T00:31:07;8.89;65.94
73112;HTU21D;61301;51.956;5.876;2022-12-07T00:33:34;8.72;65.83
73112;HTU21D;61301;51.956;5.876;2022-12-07T00:36:02;8.63;65.31
73112;HTU21D;61301;51.956;5.876;2022-12-07T00:38:30;8.39;65.98
73112;HTU21D;61301;51.956;5.876;2022-12-07T00:40:59;8.34;66.11
73112;HTU21D;61301;51.956;5.876;2022-12-07T00:43:26;8.30;66.33
73112;HTU21D;61301;51.956;5.876;2022-12-07T00:45:52;8.41;66.34
73112;HTU21D;61301;51.956;5.876;2022-12-07T00:48:19;8.46;66.28
73112;HTU21D;61301;51.956;5.876;2022-12-07T00:50:45;8.45;66.40
73112;HTU21D;61301;51.956;5.876;2022-12-07T00:53:11;8.33;66.07
73112;HTU21D;61301;51.956;5.876;2022-12-07T00:55:37;8.33;65.85
73112;HTU21D;61301;51.956;5.876;2022-12-07T00:58:04;8.34;66.33
73112;HTU21D;61301;51.956;5.876;2022-12-07T01:00:30;8.46;66.47
73112;HTU21D;61301;51.956;5.876;2022-12-07T01:02:56;8.45;66.09
73112;HTU21D;61301;51.956;5.876;2022-12-07T01:05:22;8.30;65.64
73112;HTU21D;61301;51.956;5.876;2022-12-07T01:07:48;8.24;65.82
73112;HTU21D;61301;51.956;5.876;2022-12-07T01:10:14;8.28;66.34
73112;HTU21D;61301;51.956;5.876;2022-12-07T01:12:40;8.33;66.40
73112;HTU21D;61301;51.956;5.876;2022-12-07T01:15:07;8.45;66.44
73112;HTU21D;61301;51.956;5.876;2022-12-07T01:17:34;8.53;66.35
73112;HTU21D;61301;51.956;5.876;2022-12-07T01:20:00;8.45;66.04
73112;HTU21D;61301;51.956;5.876;2022-12-07T01:22:26;8.44;65.03
73112;HTU21D;61301;51.956;5.876;2022-12-07T01:24:52;8.27;65.17
73112;HTU21D;61301;51.956;5.876;2022-12-07T01:27:18;8.09;65.25
73112;HTU21D;61301;51.956;5.876;2022-12-07T01:29:44;8.01;65.43
73112;HTU21D;61301;51.956;5.876;2022-12-07T01:32:10;7.90;65.76
73112;HTU21D;61301;51.956;5.876;2022-12-07T01:34:36;7.99;66.38
73112;HTU21D;61301;51.956;5.876;2022-12-07T01:37:03;7.81;66.51
73112;HTU21D;61301;51.956;5.876;2022-12-07T01:39:29;7.74;66.49
73112;HTU21D;61301;51.956;5.876;2022-12-07T01:41:55;7.71;66.31
73112;HTU21D;61301;51.956;5.876;2022-12-07T01:44:26;7.71;66.09
73112;HTU21D;61301;51.956;5.876;2022-12-07T01:46:54;7.71;66.01
73112;HTU21D;61301;51.956;5.876;2022-12-07T01:49:29;7.59;65.89
73112;HTU21D;61301;51.956;5.876;2022-12-07T01:52:03;7.56;66.33
73112;HTU21D;61301;51.956;5.876;2022-12-07T01:54:32;7.63;66.36
73112;HTU21D;61301;51.956;5.876;2022-12-07T01:56:59;7.65;66.31
73112;HTU21D;61301;51.956;5.876;2022-12-07T01:59:25;7.72;66.19
73112;HTU21D;61301;51.956;5.876;2022-12-07T02:01:53;7.72;66.17
73112;HTU21D;61301;51.956;5.876;2022-12-07T02:04:21;7.72;66.14
73112;HTU21D;61301;51.956;5.876;2022-12-07T02:06:48;7.57;66.47
73112;HTU21D;61301;51.956;5.876;2022-12-07T02:09:14;7.58;66.72
73112;HTU21D;61301;51.956;5.876;2022-12-07T02:11:41;7.61;66.44
73112;HTU21D;61301;51.956;5.876;2022-12-07T02:14:07;7.68;66.35
73112;HTU21D;61301;51.956;5.876;2022-12-07T02:28:34;7.38;67.03
73112;HTU21D;61301;51.956;5.876;2022-12-07T02:31:15;7.23;67.33
73112;HTU21D;61301;51.956;5.876;2022-12-07T02:34:02;7.32;67.49
73112;HTU21D;61301;51.956;5.876;2022-12-07T02:36:36;7.48;67.33
73112;HTU21D;61301;51.956;5.876;2022-12-07T02:39:14;7.44;66.52
73112;HTU21D;61301;51.956;5.876;2022-12-07T02:41:47;7.30;66.51
73112;HTU21D;61301;51.956;5.876;2022-12-07T02:44:17;7.26;66.12
73112;HTU21D;61301;51.956;5.876;2022-12-07T02:46:49;7.17;66.28
73112;HTU21D;61301;51.956;5.876;2022-12-07T02:49:16;7.25;66.52
73112;HTU21D;61301;51.956;5.876;2022-12-07T02:51:44;7.23;66.59
73112;HTU21D;61301;51.956;5.876;2022-12-07T02:54:13;7.18;66.75
73112;HTU21D;61301;51.956;5.876;2022-12-07T03:05:25;7.16;66.75
73112;HTU21D;61301;51.956;5.876;2022-12-07T03:11:17;7.05;67.11
73112;HTU21D;61301;51.956;5.876;2022-12-07T03:13:59;7.01;67.11
73112;HTU21D;61301;51.956;5.876;2022-12-07T03:16:52;7.00;67.21
73112;HTU21D;61301;51.956;5.876;2022-12-07T03:19:21;7.00;67.72
73112;HTU21D;61301;51.956;5.876;2022-12-07T03:22:02;7.01;67.39
73112;HTU21D;61301;51.956;5.876;2022-12-07T03:24:33;6.99;67.34
73112;HTU21D;61301;51.956;5.876;2022-12-07T03:27:18;7.01;67.27
73112;HTU21D;61301;51.956;5.876;2022-12-07T03:29:46;7.02;67.35
73112;HTU21D;61301;51.956;5.876;2022-12-07T03:37:37;7.45;66.94
73112;HTU21D;61301;51.956;5.876;2022-12-07T03:40:11;7.53;66.58
73112;HTU21D;61301;51.956;5.876;2022-12-07T03:42:39;7.48;66.46
73112;HTU21D;61301;51.956;5.876;2022-12-07T03:45:06;7.47;66.35
73112;HTU21D;61301;51.956;5.876;2022-12-07T03:47:36;7.42;66.27
73112;HTU21D;61301;51.956;5.876;2022-12-07T03:50:14;7.39;66.53
73112;HTU21D;61301;51.956;5.876;2022-12-07T03:52:45;7.39;66.51
73112;HTU21D;61301;51.956;5.876;2022-12-07T03:55:31;7.43;66.40
73112;HTU21D;61301;51.956;5.876;2022-12-07T03:58:01;7.41;66.53
73112;HTU21D;61301;51.956;5.876;2022-12-07T04:00:28;7.28;66.88
73112;HTU21D;61301;51.956;5.876;2022-12-07T04:02:55;7.24;67.00
73112;HTU21D;61301;51.956;5.876;2022-12-07T04:05:21;7.16;67.20
73112;HTU21D;61301;51.956;5.876;2022-12-07T04:07:48;7.16;67.33
73112;HTU21D;61301;51.956;5.876;2022-12-07T04:10:14;7.18;67.39
73112;HTU21D;61301;51.956;5.876;2022-12-07T04:12:40;7.25;67.62
73112;HTU21D;61301;51.956;5.876;2022-12-07T04:15:06;7.28;67.42
73112;HTU21D;61301;51.956;5.876;2022-12-07T04:17:32;7.31;67.29
73112;HTU21D;61301;51.956;5.876;2022-12-07T04:19:58;7.28;67.18
73112;HTU21D;61301;51.956;5.876;2022-12-07T04:22:24;7.26;67.01
73112;HTU21D;61301;51.956;5.876;2022-12-07T04:24:50;7.23;67.12
73112;HTU21D;61301;51.956;5.876;2022-12-07T04:27:16;7.29;67.11
73112;HTU21D;61301;51.956;5.876;2022-12-07T04:29:42;7.38;67.02
73112;HTU21D;61301;51.956;5.876;2022-12-07T04:32:08;7.38;67.05
73112;HTU21D;61301;51.956;5.876;2022-12-07T04:34:34;7.34;67.05
73112;HTU21D;61301;51.956;5.876;2022-12-07T04:37:00;7.34;67.17
73112;HTU21D;61301;51.956;5.876;2022-12-07T04:39:31;7.59;67.39
73112;HTU21D;61301;51.956;5.876;2022-12-07T04:41:58;7.61;66.87
73112;HTU21D;61301;51.956;5.876;2022-12-07T04:44:25;7.77;67.04
73112;HTU21D;61301;51.956;5.876;2022-12-07T04:46:52;7.88;66.71
73112;HTU21D;61301;51.956;5.876;2022-12-07T04:49:18;7.77;65.94
73112;HTU21D;61301;51.956;5.876;2022-12-07T04:51:46;7.70;65.83
73112;HTU21D;61301;51.956;5.876;2022-12-07T04:54:13;7.60;65.88
73112;HTU21D;61301;51.956;5.876;2022-12-07T04:56:40;7.40;66.50
73112;HTU21D;61301;51.956;5.876;2022-12-07T04:59:06;7.29;66.83
73112;HTU21D;61301;51.956;5.876;2022-12-07T05:01:33;7.31;66.80
73112;HTU21D;61301;51.956;5.876;2022-12-07T05:03:59;7.34;66.57
73112;HTU21D;61301;51.956;5.876;2022-12-07T05:06:25;7.26;66.91
73112;HTU21D;61301;51.956;5.876;2022-12-07T05:08:52;7.28;66.89
73112;HTU21D;61301;51.956;5.876;2022-12-07T05:11:18;7.16;67.20
73112;HTU21D;61301;51.956;5.876;2022-12-07T05:14:08;7.15;67.17
73112;HTU21D;61301;51.956;5.876;2022-12-07T05:16:35;7.17;67.31
73112;HTU21D;61301;51.956;5.876;2022-12-07T05:19:01;7.29;67.33
73112;HTU21D;61301;51.956;5.876;2022-12-07T05:21:27;7.38;67.34
73112;HTU21D;61301;51.956;5.876;2022-12-07T05:23:53;7.49;67.48
73112;HTU21D;61301;51.956;5.876;2022-12-07T05:26:19;7.39;67.01
73112;HTU21D;61301;51.956;5.876;2022-12-07T05:28:45;7.33;66.62
73112;HTU21D;61301;51.956;5.876;2022-12-07T05:31:11;7.28;66.65
73112;HTU21D;61301;51.956;5.876;2022-12-07T05:33:38;7.27;66.58
73112;HTU21D;61301;51.956;5.876;2022-12-07T05:36:04;7.15;66.84
73112;HTU21D;61301;51.956;5.876;2022-12-07T05:38:33;7.34;66.98
73112;HTU21D;61301;51.956;5.876;2022-12-07T05:41:03;7.41;66.54
73112;HTU21D;61301;51.956;5.876;2022-12-07T05:43:30;7.42;66.44
73112;HTU21D;61301;51.956;5.876;2022-12-07T05:45:56;7.25;66.94
73112;HTU21D;61301;51.956;5.876;2022-12-07T05:48:23;7.28;66.96
73112;HTU21D;61301;51.956;5.876;2022-12-07T05:50:49;7.23;66.94
73112;HTU21D;61301;51.956;5.876;2022-12-07T05:53:16;7.13;67.33
73112;HTU21D;61301;51.956;5.876;2022-12-07T05:55:42;7.10;67.33
73112;HTU21D;61301;51.956;5.876;2022-12-07T05:58:08;7.07;67.48
73112;HTU21D;61301;51.956;5.876;2022-12-07T06:00:56;7.02;68.13
73112;HTU21D;61301;51.956;5.876;2022-12-07T06:03:22;7.20;67.81
73112;HTU21D;61301;51.956;5.876;2022-12-07T06:05:48;7.33;67.81
73112;HTU21D;61301;51.956;5.876;2022-12-07T06:08:14;7.39;67.39
73112;HTU21D;61301;51.956;5.876;2022-12-07T06:10:41;7.45;67.27
73112;HTU21D;61301;51.956;5.876;2022-12-07T06:13:08;7.67;67.27
73112;HTU21D;61301;51.956;5.876;2022-12-07T06:15:37;7.83;66.67
73112;HTU21D;61301;51.956;5.876;2022-12-07T06:18:03;7.82;65.82
73112;HTU21D;61301;51.956;5.876;2022-12-07T06:20:29;7.75;65.99
73112;HTU21D;61301;51.956;5.876;2022-12-07T06:22:55;7.71;65.73
73112;HTU21D;61301;51.956;5.876;2022-12-07T06:25:21;7.63;65.34
73112;HTU21D;61301;51.956;5.876;2022-12-07T06:27:47;7.45;65.61
73112;HTU21D;61301;51.956;5.876;2022-12-07T06:30:13;7.33;65.79
73112;HTU21D;61301;51.956;5.876;2022-12-07T06:32:39;7.37;66.10
73112;HTU21D;61301;51.956;5.876;2022-12-07T06:35:05;7.41;66.60
73112;HTU21D;61301;51.956;5.876;2022-12-07T06:37:31;7.47;66.32
73112;HTU21D;61301;51.956;5.876;2022-12-07T06:39:57;7.42;66.27
73112;HTU21D;61301;51.956;5.876;2022-12-07T06:42:23;7.47;66.14
73112;HTU21D;61301;51.956;5.876;2022-12-07T06:44:49;7.38;65.97
73112;HTU21D;61301;51.956;5.876;2022-12-07T06:47:15;7.39;66.05
73112;HTU21D;61301;51.956;5.876;2022-12-07T06:49:41;7.34;65.89
73112;HTU21D;61301;51.956;5.876;2022-12-07T06:52:07;7.23;66.16
73112;HTU21D;61301;51.956;5.876;2022-12-07T06:54:33;7.42;66.46
73112;HTU21D;61301;51.956;5.876;2022-12-07T06:56:59;7.54;66.52
73112;HTU21D;61301;51.956;5.876;2022-12-07T06:59:25;7.73;66.17
73112;HTU21D;61301;51.956;5.876;2022-12-07T07:01:51;7.79;65.69
73112;HTU21D;61301;51.956;5.876;2022-12-07T07:04:17;7.81;65.68
73112;HTU21D;61301;51.956;5.876;2022-12-07T07:06:43;7.72;65.08
73112;HTU21D;61301;51.956;5.876;2022-12-07T07:09:09;7.61;64.95
73112;HTU21D;61301;51.956;5.876;2022-12-07T07:11:35;7.56;65.05
73112;HTU21D;61301;51.956;5.876;2022-12-07T07:14:01;7.58;65.25
73112;HTU21D;61301;51.956;5.876;2022-12-07T07:16:29;7.69;65.30
73112;HTU21D;61301;51.956;5.876;2022-12-07T07:18:56;7.71;65.17
73112;HTU21D;61301;51.956;5.876;2022-12-07T07:21:23;7.73;65.07
73112;HTU21D;61301;51.956;5.876;2022-12-07T07:23:48;7.65;65.20
73112;HTU21D;61301;51.956;5.876;2022-12-07T07:26:14;7.61;64.88
73112;HTU21D;61301;51.956;5.876;2022-12-07T07:28:40;7.45;65.14
73112;HTU21D;61301;51.956;5.876;2022-12-07T07:31:06;7.35;65.55
73112;HTU21D;61301;51.956;5.876;2022-12-07T07:33:32;7.39;65.90
73112;HTU21D;61301;51.956;5.876;2022-12-07T07:35:58;7.53;66.07
73112;HTU21D;61301;51.956;5.876;2022-12-07T07:38:24;7.63;66.11
73112;HTU21D;61301;51.956;5.876;2022-12-07T07:40:50;7.69;66.15
73112;HTU21D;61301;51.956;5.876;2022-12-07T07:43:16;7.76;65.89
73112;HTU21D;61301;51.956;5.876;2022-12-07T07:45:42;7.78;65.85
73112;HTU21D;61301;51.956;5.876;2022-12-07T07:48:09;7.77;65.71
73112;HTU21D;61301;51.956;5.876;2022-12-07T07:50:35;7.75;65.54
73112;HTU21D;61301;51.956;5.876;2022-12-07T07:53:01;7.83;65.37
73112;HTU21D;61301;51.956;5.876;2022-12-07T07:55:27;7.75;64.95
73112;HTU21D;61301;51.956;5.876;2022-12-07T07:57:53;7.69;65.14
73112;HTU21D;61301;51.956;5.876;2022-12-07T08:00:20;7.62;65.20
73112;HTU21D;61301;51.956;5.876;2022-12-07T08:02:46;7.63;65.52
73112;HTU21D;61301;51.956;5.876;2022-12-07T08:05:13;7.65;65.72
73112;HTU21D;61301;51.956;5.876;2022-12-07T08:07:39;7.72;65.53
73112;HTU21D;61301;51.956;5.876;2022-12-07T08:10:06;7.81;65.65
73112;HTU21D;61301;51.956;5.876;2022-12-07T08:12:35;7.81;65.14
73112;HTU21D;61301;51.956;5.876;2022-12-07T08:15:02;7.73;64.97
73112;HTU21D;61301;51.956;5.876;2022-12-07T08:17:28;7.69;65.03
73112;HTU21D;61301;51.956;5.876;2022-12-07T09:46:22;10.34;64.89
73112;HTU21D;61301;51.956;5.876;2022-12-07T09:48:49;10.43;65.90
73112;HTU21D;61301;51.956;5.876;2022-12-07T09:51:23;10.78;65.54
73112;HTU21D;61301;51.956;5.876;2022-12-07T09:53:49;10.99;63.42
73112;HTU21D;61301;51.956;5.876;2022-12-07T09:56:17;10.57;59.96
73112;HTU21D;61301;51.956;5.876;2022-12-07T09:58:44;10.18;61.35
73112;HTU21D;61301;51.956;5.876;2022-12-07T10:01:19;9.93;62.12
73112;HTU21D;61301;51.956;5.876;2022-12-07T10:03:51;9.75;62.07
73112;HTU21D;61301;51.956;5.876;2022-12-07T10:06:17;9.72;62.32
73112;HTU21D;61301;51.956;5.876;2022-12-07T10:08:44;9.56;62.86
73112;HTU21D;61301;51.956;5.876;2022-12-07T10:11:10;9.30;63.03
73112;HTU21D;61301;51.956;5.876;2022-12-07T10:13:38;9.26;63.64
73112;HTU21D;61301;51.956;5.876;2022-12-07T10:16:05;9.29;63.44
73112;HTU21D;61301;51.956;5.876;2022-12-07T10:18:41;9.26;63.50
73112;HTU21D;61301;51.956;5.876;2022-12-07T10:23:35;9.31;63.31
73112;HTU21D;61301;51.956;5.876;2022-12-07T10:28:47;9.18;64.01
73112;HTU21D;61301;51.956;5.876;2022-12-07T10:31:19;9.34;64.01
73112;HTU21D;61301;51.956;5.876;2022-12-07T10:33:55;9.40;63.79
73112;HTU21D;61301;51.956;5.876;2022-12-07T10:36:35;9.51;63.92
73112;HTU21D;61301;51.956;5.876;2022-12-07T10:39:14;9.52;63.32
73112;HTU21D;61301;51.956;5.876;2022-12-07T10:44:24;9.36;63.44
73112;HTU21D;61301;51.956;5.876;2022-12-07T10:47:04;9.52;63.42
73112;HTU21D;61301;51.956;5.876;2022-12-07T10:52:36;9.90;62.48
73112;HTU21D;61301;51.956;5.876;2022-12-07T10:55:45;9.94;62.35
73112;HTU21D;61301;51.956;5.876;2022-12-07T11:01:23;9.85;62.88
73112;HTU21D;61301;51.956;5.876;2022-12-07T11:15:01;9.98;62.47
73112;HTU21D;61301;51.956;5.876;2022-12-07T11:18:17;9.90;62.60
73112;HTU21D;61301;51.956;5.876;2022-12-07T11:24:09;9.96;62.23
73112;HTU21D;61301;51.956;5.876;2022-12-07T11:27:16;9.95;62.10
73112;HTU21D;61301;51.956;5.876;2022-12-07T11:30:02;9.85;61.80
73112;HTU21D;61301;51.956;5.876;2022-12-07T11:37:49;9.80;62.52
73112;HTU21D;61301;51.956;5.876;2022-12-07T11:40:20;9.82;63.08
73112;HTU21D;61301;51.956;5.876;2022-12-07T11:42:58;9.91;62.65
73112;HTU21D;61301;51.956;5.876;2022-12-07T11:45:32;10.01;62.64
73112;HTU21D;61301;51.956;5.876;2022-12-07T11:48:02;9.94;62.19
73112;HTU21D;61301;51.956;5.876;2022-12-07T11:50:36;9.93;62.24
73112;HTU21D;61301;51.956;5.876;2022-12-07T11:55:49;9.99;62.09
73112;HTU21D;61301;51.956;5.876;2022-12-07T11:58:35;10.09;62.18
73112;HTU21D;61301;51.956;5.876;2022-12-07T12:04:07;10.24;60.85
73112;HTU21D;61301;51.956;5.876;2022-12-07T12:06:31;10.18;61.57
73112;HTU21D;61301;51.956;5.876;2022-12-07T12:17:27;10.45;61.19
73112;HTU21D;61301;51.956;5.876;2022-12-07T12:22:47;10.35;61.35
73112;HTU21D;61301;51.956;5.876;2022-12-07T12:25:22;10.31;61.19
73112;HTU21D;61301;51.956;5.876;2022-12-07T12:27:50;10.34;61.42
73112;HTU21D;61301;51.956;5.876;2022-12-07T12:30:37;10.48;61.50
73112;HTU21D;61301;51.956;5.876;2022-12-07T12:33:27;10.46;60.78
73112;HTU21D;61301;51.956;5.876;2022-12-07T12:36:19;10.34;61.05
73112;HTU21D;61301;51.956;5.876;2022-12-07T12:46:58;10.53;60.79
73112;HTU21D;61301;51.956;5.876;2022-12-07T12:55:00;10.74;60.64
73112;HTU21D;61301;51.956;5.876;2022-12-07T12:57:29;10.65;59.82
73112;HTU21D;61301;51.956;5.876;2022-12-07T12:59:58;10.55;59.77
73112;HTU21D;61301;51.956;5.876;2022-12-07T13:02:35;10.58;60.32
73112;HTU21D;61301;51.956;5.876;2022-12-07T13:08:02;10.45;60.36
73112;HTU21D;61301;51.956;5.876;2022-12-07T13:15:56;10.88;60.28
73112;HTU21D;61301;51.956;5.876;2022-12-07T13:18:41;11.08;58.88
73112;HTU21D;61301;51.956;5.876;2022-12-07T13:26:19;10.87;58.76
73112;HTU21D;61301;51.956;5.876;2022-12-07T13:29:04;10.98;59.06
73112;HTU21D;61301;51.956;5.876;2022-12-07T13:31:51;11.03;58.49
73112;HTU21D;61301;51.956;5.876;2022-12-07T13:34:37;11.23;58.25
73112;HTU21D;61301;51.956;5.876;2022-12-07T13:37:15;11.22;58.13
73112;HTU21D;61301;51.956;5.876;2022-12-07T13:39:49;11.07;58.14
73112;HTU21D;61301;51.956;5.876;2022-12-07T13:42:27;11.36;58.55
73112;HTU21D;61301;51.956;5.876;2022-12-07T13:44:53;11.53;57.19
73112;HTU21D;61301;51.956;5.876;2022-12-07T13:47:34;11.51;56.90
73112;HTU21D;61301;51.956;5.876;2022-12-07T13:50:01;11.58;55.21
73112;HTU21D;61301;51.956;5.876;2022-12-07T13:52:29;11.56;56.27
73112;HTU21D;61301;51.956;5.876;2022-12-07T13:55:13;11.67;55.96
73112;HTU21D;61301;51.956;5.876;2022-12-07T13:57:40;11.58;54.91
73112;HTU21D;61301;51.956;5.876;2022-12-07T14:00:16;11.40;55.55
73112;HTU21D;61301;51.956;5.876;2022-12-07T14:03:01;11.34;55.81
73112;HTU21D;61301;51.956;5.876;2022-12-07T14:05:32;11.23;56.00
73112;HTU21D;61301;51.956;5.876;2022-12-07T14:08:20;11.07;56.64
73112;HTU21D;61301;51.956;5.876;2022-12-07T14:15:53;10.67;58.41
73112;HTU21D;61301;51.956;5.876;2022-12-07T14:18:38;10.55;59.00
73112;HTU21D;61301;51.956;5.876;2022-12-07T14:21:18;10.59;58.87
73112;HTU21D;61301;51.956;5.876;2022-12-07T14:23:45;10.50;59.06
73112;HTU21D;61301;51.956;5.876;2022-12-07T14:26:18;10.45;59.32
73112;HTU21D;61301;51.956;5.876;2022-12-07T14:28:45;10.55;59.16
73112;HTU21D;61301;51.956;5.876;2022-12-07T14:31:16;10.55;59.07
73112;HTU21D;61301;51.956;5.876;2022-12-07T14:33:43;10.54;58.79
73112;HTU21D;61301;51.956;5.876;2022-12-07T14:36:10;10.57;59.08
73112;HTU21D;61301;51.956;5.876;2022-12-07T14:38:37;10.43;58.57
73112;HTU21D;61301;51.956;5.876;2022-12-07T14:41:05;10.40;58.81
73112;HTU21D;61301;51.956;5.876;2022-12-07T14:43:50;10.51;58.77
73112;HTU21D;61301;51.956;5.876;2022-12-07T14:46:16;10.63;59.25
73112;HTU21D;61301;51.956;5.876;2022-12-07T14:48:42;10.70;57.64
73112;HTU21D;61301;51.956;5.876;2022-12-07T14:51:10;10.64;57.85
73112;HTU21D;61301;51.956;5.876;2022-12-07T14:53:44;10.56;58.38
73112;HTU21D;61301;51.956;5.876;2022-12-07T14:56:11;10.49;57.66
73112;HTU21D;61301;51.956;5.876;2022-12-07T14:58:37;10.44;58.24
73112;HTU21D;61301;51.956;5.876;2022-12-07T15:01:04;10.43;58.16
73112;HTU21D;61301;51.956;5.876;2022-12-07T15:03:30;10.30;58.47
73112;HTU21D;61301;51.956;5.876;2022-12-07T15:05:56;10.34;58.43
73112;HTU21D;61301;51.956;5.876;2022-12-07T15:08:22;10.49;59.03
73112;HTU21D;61301;51.956;5.876;2022-12-07T15:10:48;10.40;58.09
73112;HTU21D;61301;51.956;5.876;2022-12-07T15:13:14;10.34;57.95
73112;HTU21D;61301;51.956;5.876;2022-12-07T15:15:59;10.14;58.20
73112;HTU21D;61301;51.956;5.876;2022-12-07T15:18:25;10.14;58.70
73112;HTU21D;61301;51.956;5.876;2022-12-07T15:20:51;10.13;58.95
73112;HTU21D;61301;51.956;5.876;2022-12-07T15:23:17;10.27;59.08
73112;HTU21D;61301;51.956;5.876;2022-12-07T15:25:44;10.29;59.10
73112;HTU21D;61301;51.956;5.876;2022-12-07T15:28:10;10.30;58.61
73112;HTU21D;61301;51.956;5.876;2022-12-07T15:30:38;10.15;58.99
73112;HTU21D;61301;51.956;5.876;2022-12-07T15:33:04;10.08;59.38
73112;HTU21D;61301;51.956;5.876;2022-12-07T15:35:30;10.15;59.17
73112;HTU21D;61301;51.956;5.876;2022-12-07T15:37:56;10.01;59.59
73112;HTU21D;61301;51.956;5.876;2022-12-07T15:40:22;9.94;59.98
73112;HTU21D;61301;51.956;5.876;2022-12-07T15:42:48;9.89;60.11
73112;HTU21D;61301;51.956;5.876;2022-12-07T15:45:14;9.89;60.31
73112;HTU21D;61301;51.956;5.876;2022-12-07T15:47:41;9.86;60.25
73112;HTU21D;61301;51.956;5.876;2022-12-07T15:50:10;9.86;60.35
73112;HTU21D;61301;51.956;5.876;2022-12-07T15:52:37;9.81;60.35
73112;HTU21D;61301;51.956;5.876;2022-12-07T15:55:03;9.64;60.82
73112;HTU21D;61301;51.956;5.876;2022-12-07T15:57:30;9.62;60.85
73112;HTU21D;61301;51.956;5.876;2022-12-07T15:59:56;9.54;60.98
73112;HTU21D;61301;51.956;5.876;2022-12-07T16:02:22;9.45;61.35
73112;HTU21D;61301;51.956;5.876;2022-12-07T16:04:49;9.40;61.34
73112;HTU21D;61301;51.956;5.876;2022-12-07T16:07:16;9.38;61.36
73112;HTU21D;61301;51.956;5.876;2022-12-07T16:09:44;9.44;61.27
73112;HTU21D;61301;51.956;5.876;2022-12-07T16:12:11;9.46;61.12
73112;HTU21D;61301;51.956;5.876;2022-12-07T16:14:38;9.57;61.09
73112;HTU21D;61301;51.956;5.876;2022-12-07T16:17:05;9.54;60.76
73112;HTU21D;61301;51.956;5.876;2022-12-07T16:19:32;9.63;61.07
73112;HTU21D;61301;51.956;5.876;2022-12-07T16:21:58;9.61;60.88
73112;HTU21D;61301;51.956;5.876;2022-12-07T16:24:25;9.55;61.09
73112;HTU21D;61301;51.956;5.876;2022-12-07T16:26:51;9.39;61.23
73112;HTU21D;61301;51.956;5.876;2022-12-07T16:29:19;9.45;61.63
73112;HTU21D;61301;51.956;5.876;2022-12-07T16:31:46;9.55;60.95
73112;HTU21D;61301;51.956;5.876;2022-12-07T16:34:12;9.48;61.00
73112;HTU21D;61301;51.956;5.876;2022-12-07T16:36:38;9.49;61.32
73112;HTU21D;61301;51.956;5.876;2022-12-07T16:39:05;9.54;60.97
73112;HTU21D;61301;51.956;5.876;2022-12-07T16:41:31;9.48;60.89
73112;HTU21D;61301;51.956;5.876;2022-12-07T16:44:02;9.46;60.80
73112;HTU21D;61301;51.956;5.876;2022-12-07T16:46:29;9.47;60.57
73112;HTU21D;61301;51.956;5.876;2022-12-07T16:48:55;9.51;61.08
73112;HTU21D;61301;51.956;5.876;2022-12-07T16:51:21;9.60;60.97
73112;HTU21D;61301;51.956;5.876;2022-12-07T16:53:47;9.47;60.69
73112;HTU21D;61301;51.956;5.876;2022-12-07T16:56:15;9.38;60.80
73112;HTU21D;61301;51.956;5.876;2022-12-07T16:58:42;9.34;60.69
73112;HTU21D;61301;51.956;5.876;2022-12-07T17:01:13;9.22;61.18
73112;HTU21D;61301;51.956;5.876;2022-12-07T17:03:39;9.17;61.39
73112;HTU21D;61301;51.956;5.876;2022-12-07T17:06:16;9.08;61.57
73112;HTU21D;61301;51.956;5.876;2022-12-07T17:08:43;8.89;62.06
73112;HTU21D;61301;51.956;5.876;2022-12-07T17:11:17;8.93;62.12
73112;HTU21D;61301;51.956;5.876;2022-12-07T17:13:44;8.93;62.02
73112;HTU21D;61301;51.956;5.876;2022-12-07T17:16:29;8.85;62.15
73112;HTU21D;61301;51.956;5.876;2022-12-07T17:18:55;8.89;62.10
73112;HTU21D;61301;51.956;5.876;2022-12-07T17:21:21;8.82;62.24
73112;HTU21D;61301;51.956;5.876;2022-12-07T17:23:48;8.79;62.37
73112;HTU21D;61301;51.956;5.876;2022-12-07T17:26:20;8.74;62.54
73112;HTU21D;61301;51.956;5.876;2022-12-07T17:28:46;8.70;62.67
73112;HTU21D;61301;51.956;5.876;2022-12-07T17:31:15;8.70;62.98
73112;HTU21D;61301;51.956;5.876;2022-12-07T17:33:41;8.78;62.80
73112;HTU21D;61301;51.956;5.876;2022-12-07T17:36:16;8.73;62.85
73112;HTU21D;61301;51.956;5.876;2022-12-07T17:38:42;8.60;63.43
73112;HTU21D;61301;51.956;5.876;2022-12-07T17:41:33;8.59;63.40
73112;HTU21D;61301;51.956;5.876;2022-12-07T17:44:18;8.65;63.44
73112;HTU21D;61301;51.956;5.876;2022-12-07T17:46:47;8.70;63.56
73112;HTU21D;61301;51.956;5.876;2022-12-07T17:49:14;8.53;64.06
73112;HTU21D;61301;51.956;5.876;2022-12-07T17:51:40;8.42;64.63
73112;HTU21D;61301;51.956;5.876;2022-12-07T17:54:25;8.39;64.76
73112;HTU21D;61301;51.956;5.876;2022-12-07T17:56:51;8.33;65.07
73112;HTU21D;61301;51.956;5.876;2022-12-07T17:59:17;8.42;65.00
73112;HTU21D;61301;51.956;5.876;2022-12-07T18:01:44;8.34;65.21
73112;HTU21D;61301;51.956;5.876;2022-12-07T18:04:10;8.23;65.46
73112;HTU21D;61301;51.956;5.876;2022-12-07T18:06:37;8.16;65.77
73112;HTU21D;61301;51.956;5.876;2022-12-07T18:09:04;8.22;65.47
73112;HTU21D;61301;51.956;5.876;2022-12-07T18:11:31;8.23;65.53
73112;HTU21D;61301;51.956;5.876;2022-12-07T18:13:57;8.35;65.32
73112;HTU21D;61301;51.956;5.876;2022-12-07T18:16:25;8.53;65.19
73112;HTU21D;61301;51.956;5.876;2022-12-07T18:18:52;8.49;64.98
73112;HTU21D;61301;51.956;5.876;2022-12-07T18:21:21;8.48;64.74
73112;HTU21D;61301;51.956;5.876;2022-12-07T18:23:50;8.59;64.85
73112;HTU21D;61301;51.956;5.876;2022-12-07T18:26:17;8.63;64.53
73112;HTU21D;61301;51.956;5.876;2022-12-07T18:28:43;8.62;64.20
73112;HTU21D;61301;51.956;5.876;2022-12-07T18:31:10;8.58;64.50
73112;HTU21D;61301;51.956;5.876;2022-12-07T18:33:38;8.47;64.67
73112;HTU21D;61301;51.956;5.876;2022-12-07T18:36:04;8.34;65.00
73112;HTU21D;61301;51.956;5.876;2022-12-07T18:38:30;8.27;65.40
73112;HTU21D;61301;51.956;5.876;2022-12-07T18:40:57;8.18;65.67
73112;HTU21D;61301;51.956;5.876;2022-12-07T18:43:23;8.19;65.75
73112;HTU21D;61301;51.956;5.876;2022-12-07T18:45:52;8.19;65.75
73112;HTU21D;61301;51.956;5.876;2022-12-07T18:48:19;8.23;65.68
73112;HTU21D;61301;51.956;5.876;2022-12-07T18:50:47;8.26;65.71
73112;HTU21D;61301;51.956;5.876;2022-12-07T18:53:23;8.33;65.56
73112;HTU21D;61301;51.956;5.876;2022-12-07T18:55:49;8.32;65.48
73112;HTU21D;61301;51.956;5.876;2022-12-07T18:58:15;8.32;65.28
73112;HTU21D;61301;51.956;5.876;2022-12-07T19:00:41;8.22;65.28